Time;durP1;ratioP1;P1;durP2;ratioP2;P2;SDS_P1;SDS_P2;PMS_P1;PMS_P2;Temp;Humidity;BMP_temperature;BMP_pressure;BME280_temperature;BME280_humidity;BME280_pressure;Samples;Min_cycle;Max_cycle;Signal;HPM_P1;HPM_P2
2022/07/09 00:01:28;;;;;;;13.45;6.32;;;16.90;99.90;;;;;;5058307;28;20048;-67
2022/07/09 00:03:55;;;;;;;12.95;6.43;;;16.90;99.90;;;;;;5058899;28;20053;-67
2022/07/09 00:06:20;;;;;;;14.52;6.57;;;16.90;99.90;;;;;;5053913;28;20075;-68
2022/07/09 00:08:46;;;;;;;17.02;6.80;;;16.90;99.90;;;;;;5058295;28;20048;-67
2022/07/09 00:11:12;;;;;;;12.75;6.13;;;16.90;99.90;;;;;;5058672;28;20541;-68
2022/07/09 00:13:37;;;;;;;18.77;7.50;;;16.90;99.90;;;;;;5060680;28;20048;-67
2022/07/09 00:16:03;;;;;;;12.50;6.28;;;16.90;99.90;;;;;;5075943;28;20557;-67
2022/07/09 00:18:29;;;;;;;15.13;6.22;;;16.90;99.90;;;;;;5056500;28;20045;-66
2022/07/09 00:20:55;;;;;;;21.40;7.55;;;16.90;99.90;;;;;;5058317;28;20048;-67
2022/07/09 00:23:21;;;;;;;13.23;7.25;;;16.90;99.90;;;;;;5067104;28;20082;-67
2022/07/09 00:25:46;;;;;;;13.55;6.60;;;17.00;99.90;;;;;;5063991;28;20047;-67
2022/07/09 00:28:12;;;;;;;12.38;6.78;;;16.90;99.90;;;;;;5054202;28;20098;-67
2022/07/09 00:30:38;;;;;;;14.75;6.80;;;16.90;99.90;;;;;;5063815;28;20036;-66
2022/07/09 00:33:03;;;;;;;14.48;7.55;;;16.90;99.90;;;;;;5063089;28;20044;-67
2022/07/09 00:35:30;;;;;;;14.63;6.43;;;16.90;99.90;;;;;;5059304;28;20049;-67
2022/07/09 00:37:56;;;;;;;17.48;6.80;;;16.90;99.90;;;;;;5067602;28;20046;-67
2022/07/09 00:40:22;;;;;;;12.55;6.45;;;16.90;99.90;;;;;;5064795;28;20033;-66
2022/07/09 00:42:47;;;;;;;15.25;6.63;;;16.90;99.90;;;;;;5054047;28;20041;-67
2022/07/09 00:45:13;;;;;;;18.48;6.65;;;16.90;99.90;;;;;;5059482;28;20052;-66
2022/07/09 00:47:42;;;;;;;17.20;6.90;;;17.00;99.90;;;;;;5057877;28;20070;-67
2022/07/09 00:50:08;;;;;;;17.52;7.75;;;17.00;99.90;;;;;;5057166;28;20049;-68
2022/07/09 00:52:35;;;;;;;14.23;6.30;;;16.90;99.90;;;;;;5059602;28;20103;-67
2022/07/09 00:55:02;;;;;;;17.90;7.28;;;16.90;99.90;;;;;;5058921;28;20549;-66
2022/07/09 00:57:28;;;;;;;19.20;7.38;;;16.90;99.90;;;;;;5070762;28;20509;-66
2022/07/09 00:59:55;;;;;;;22.52;7.40;;;16.90;99.90;;;;;;5052089;28;20041;-67
2022/07/09 01:02:22;;;;;;;17.65;7.05;;;17.00;99.90;;;;;;5054688;28;20041;-68
2022/07/09 01:04:48;;;;;;;18.17;6.63;;;16.90;99.90;;;;;;5043686;28;20517;-68
2022/07/09 01:07:18;;;;;;;18.60;7.60;;;16.90;99.90;;;;;;5064534;28;20226;-66
2022/07/09 01:09:44;;;;;;;21.80;6.82;;;16.90;99.90;;;;;;5064306;28;20040;-69
2022/07/09 01:12:12;;;;;;;18.73;7.03;;;16.90;99.90;;;;;;5056089;28;20127;-66
2022/07/09 01:14:38;;;;;;;14.57;6.90;;;16.90;99.90;;;;;;5056199;28;20132;-67
2022/07/09 01:17:05;;;;;;;17.05;6.88;;;16.90;99.90;;;;;;5059412;28;20142;-66
2022/07/09 01:19:41;;;;;;;14.43;6.55;;;16.90;99.90;;;;;;5060937;28;20053;-67
2022/07/09 01:22:06;;;;;;;16.92;7.22;;;16.90;99.90;;;;;;5057430;28;20123;-66
2022/07/09 01:24:33;;;;;;;15.18;6.47;;;16.90;99.90;;;;;;5065558;28;20127;-68
2022/07/09 01:26:59;;;;;;;16.38;6.95;;;16.90;99.90;;;;;;5060826;28;20040;-67
2022/07/09 01:29:25;;;;;;;14.35;6.75;;;16.80;99.90;;;;;;5065287;28;20044;-67
2022/07/09 01:31:50;;;;;;;16.50;6.50;;;16.80;99.90;;;;;;5055042;28;20481;-68
2022/07/09 01:34:16;;;;;;;20.33;7.85;;;16.70;99.90;;;;;;5070700;28;20075;-67
2022/07/09 01:36:42;;;;;;;15.50;6.88;;;16.80;99.90;;;;;;5079044;28;20434;-67
2022/07/09 01:39:07;;;;;;;18.70;6.65;;;16.80;99.90;;;;;;5066640;28;20056;-68
2022/07/09 01:41:33;;;;;;;16.08;6.53;;;16.80;99.90;;;;;;5068957;28;20044;-66
2022/07/09 01:43:59;;;;;;;15.00;6.95;;;16.80;99.90;;;;;;5069967;28;20036;-66
2022/07/09 01:46:27;;;;;;;22.55;7.68;;;16.80;99.90;;;;;;5069123;28;20444;-68
2022/07/09 01:48:53;;;;;;;21.58;6.93;;;16.80;99.90;;;;;;5070063;28;20032;-67
2022/07/09 01:51:21;;;;;;;20.88;7.57;;;16.80;99.90;;;;;;5067040;28;20074;-66
2022/07/09 01:53:47;;;;;;;19.13;7.38;;;16.80;99.90;;;;;;5061550;28;20037;-67
2022/07/09 01:56:13;;;;;;;19.08;7.25;;;16.80;99.90;;;;;;5067425;28;20572;-66
2022/07/09 01:58:39;;;;;;;16.23;7.50;;;16.80;99.90;;;;;;5060823;28;20060;-67
2022/07/09 02:01:05;;;;;;;14.98;6.70;;;16.70;99.90;;;;;;5048817;28;20509;-66
2022/07/09 02:03:30;;;;;;;15.77;7.13;;;16.80;99.90;;;;;;5071290;28;20037;-66
2022/07/09 02:05:56;;;;;;;17.13;7.32;;;16.70;99.90;;;;;;5069465;28;20514;-67
2022/07/09 02:08:23;;;;;;;17.40;7.00;;;16.70;99.90;;;;;;5060333;28;20475;-67
2022/07/09 02:10:49;;;;;;;20.33;7.43;;;16.80;99.90;;;;;;5064789;28;20494;-68
2022/07/09 02:13:15;;;;;;;17.83;7.45;;;16.70;99.90;;;;;;5064804;28;20574;-67
2022/07/09 02:15:41;;;;;;;14.70;7.13;;;16.70;99.90;;;;;;5060557;28;20120;-67
2022/07/09 02:18:06;;;;;;;13.18;6.40;;;16.70;99.90;;;;;;5063764;28;20418;-68
2022/07/09 02:20:32;;;;;;;17.48;6.90;;;16.70;99.90;;;;;;5068772;28;20120;-67
2022/07/09 02:22:58;;;;;;;13.45;6.53;;;16.70;99.90;;;;;;5062245;28;20355;-68
2022/07/09 02:25:23;;;;;;;21.05;6.63;;;16.70;99.90;;;;;;5063247;28;20079;-67
2022/07/09 02:27:49;;;;;;;17.80;6.78;;;16.60;99.90;;;;;;5060484;28;20049;-67
2022/07/09 02:30:15;;;;;;;22.13;6.72;;;16.70;99.90;;;;;;5064189;28;20102;-67
2022/07/09 02:32:40;;;;;;;16.33;6.45;;;16.70;99.90;;;;;;5068470;28;20037;-68
2022/07/09 02:35:07;;;;;;;19.00;6.90;;;16.70;99.90;;;;;;5063652;28;20063;-67
2022/07/09 02:37:33;;;;;;;12.80;6.38;;;16.60;99.90;;;;;;5062472;28;20115;-68
2022/07/09 02:39:59;;;;;;;17.33;6.70;;;16.60;99.90;;;;;;5060041;28;20082;-67
2022/07/09 02:42:25;;;;;;;13.10;5.90;;;16.60;99.90;;;;;;5065120;28;20032;-67
2022/07/09 02:44:51;;;;;;;14.27;6.18;;;16.60;99.90;;;;;;5061580;28;20620;-67
2022/07/09 02:47:16;;;;;;;16.02;6.35;;;16.70;99.90;;;;;;5062221;28;20383;-66
2022/07/09 02:49:42;;;;;;;15.20;6.22;;;16.60;99.90;;;;;;5072012;28;20036;-66
2022/07/09 02:52:08;;;;;;;17.98;6.25;;;16.70;99.90;;;;;;5064601;28;20041;-66
2022/07/09 02:54:34;;;;;;;14.43;6.28;;;16.60;99.90;;;;;;5065173;28;20134;-66
2022/07/09 02:57:03;;;;;;;17.90;6.38;;;16.60;99.90;;;;;;5058659;28;20052;-66
2022/07/09 02:59:29;;;;;;;15.50;6.18;;;16.60;99.90;;;;;;5071115;28;20036;-67
2022/07/09 03:01:54;;;;;;;14.60;5.40;;;16.60;99.90;;;;;;5069905;28;20395;-67
2022/07/09 03:04:20;;;;;;;20.27;6.38;;;16.50;99.90;;;;;;5063471;28;20043;-67
2022/07/09 03:06:47;;;;;;;14.55;6.03;;;16.60;99.90;;;;;;5062203;28;20048;-66
2022/07/09 03:09:13;;;;;;;17.30;6.13;;;16.50;99.90;;;;;;5063988;28;20505;-67
2022/07/09 03:11:38;;;;;;;18.05;6.20;;;16.50;99.90;;;;;;5058828;28;20072;-66
2022/07/09 03:14:04;;;;;;;17.10;5.63;;;16.50;99.90;;;;;;5065079;28;20052;-67
2022/07/09 03:16:33;;;;;;;14.32;5.93;;;16.50;99.90;;;;;;5057404;28;20045;-66
2022/07/09 03:18:59;;;;;;;14.80;5.57;;;16.50;99.90;;;;;;5050061;28;20132;-68
2022/07/09 03:21:29;;;;;;;16.35;5.78;;;16.50;99.90;;;;;;5060090;28;20119;-67
2022/07/09 03:23:54;;;;;;;14.20;5.63;;;16.50;99.90;;;;;;5058162;28;20653;-67
2022/07/09 03:26:20;;;;;;;12.73;5.60;;;16.40;99.90;;;;;;5064425;28;20033;-66
2022/07/09 03:28:46;;;;;;;9.70;5.13;;;16.40;99.90;;;;;;5061716;28;20040;-67
2022/07/09 03:31:12;;;;;;;13.18;5.80;;;16.40;99.90;;;;;;5063951;28;20528;-67
2022/07/09 03:33:37;;;;;;;12.77;5.40;;;16.40;99.90;;;;;;5063926;28;20071;-66
2022/07/09 03:36:03;;;;;;;13.25;5.82;;;16.40;99.90;;;;;;5061395;28;20098;-68
2022/07/09 03:38:29;;;;;;;17.73;6.00;;;16.40;99.90;;;;;;5061028;28;20055;-67
2022/07/09 03:40:56;;;;;;;17.75;5.85;;;16.40;99.90;;;;;;5059023;28;20138;-66
2022/07/09 03:43:22;;;;;;;18.17;5.67;;;16.40;99.90;;;;;;5055681;28;20087;-67
2022/07/09 03:45:47;;;;;;;16.25;5.68;;;16.40;99.90;;;;;;5062491;28;20028;-66
2022/07/09 03:48:19;;;;;;;16.50;5.70;;;16.40;99.90;;;;;;5055317;28;20131;-67
2022/07/09 03:50:45;;;;;;;12.25;5.65;;;16.40;99.90;;;;;;5063180;28;20071;-67
2022/07/09 03:53:10;;;;;;;11.32;5.43;;;16.40;99.90;;;;;;5066407;28;20048;-66
2022/07/09 03:55:36;;;;;;;10.60;5.10;;;16.40;99.90;;;;;;5055585;28;20036;-65
2022/07/09 03:58:02;;;;;;;13.05;4.97;;;16.40;99.90;;;;;;5067866;28;20376;-67
2022/07/09 04:00:28;;;;;;;11.23;5.35;;;16.40;99.90;;;;;;5066924;28;20521;-66
2022/07/09 04:02:54;;;;;;;12.32;5.60;;;16.40;99.90;;;;;;5067627;28;20086;-68
2022/07/09 04:05:19;;;;;;;13.13;5.03;;;16.40;99.90;;;;;;5042370;28;20056;-68
2022/07/09 04:07:45;;;;;;;11.07;5.07;;;16.40;99.90;;;;;;5061607;28;20032;-66
2022/07/09 04:10:11;;;;;;;12.75;5.65;;;16.40;99.90;;;;;;5071646;28;20041;-67
2022/07/09 04:12:36;;;;;;;15.75;6.13;;;16.40;99.90;;;;;;5062039;28;20067;-70
2022/07/09 04:15:04;;;;;;;13.40;5.55;;;16.50;99.90;;;;;;5055769;28;20041;-67
2022/07/09 04:17:34;;;;;;;16.30;5.78;;;16.50;99.90;;;;;;5065315;28;20037;-67
2022/07/09 04:20:00;;;;;;;15.90;5.93;;;16.50;99.90;;;;;;5069150;28;20112;-67
2022/07/09 04:22:26;;;;;;;11.02;4.93;;;16.50;99.90;;;;;;5063950;28;20068;-67
2022/07/09 04:24:52;;;;;;;11.32;5.40;;;16.50;99.90;;;;;;5069353;28;20048;-68
2022/07/09 04:27:18;;;;;;;12.15;5.47;;;16.50;99.90;;;;;;5031831;28;20523;-67
2022/07/09 04:29:43;;;;;;;11.32;5.00;;;16.50;99.90;;;;;;5058871;28;20119;-68
2022/07/09 04:32:09;;;;;;;12.32;5.18;;;16.60;99.90;;;;;;5064407;28;20176;-67
2022/07/09 04:34:36;;;;;;;11.30;6.03;;;15.90;99.90;;;;;;5059764;28;20036;-67
2022/07/09 04:37:02;;;;;;;12.95;5.65;;;16.60;99.90;;;;;;5066240;28;20403;-66
2022/07/09 04:39:29;;;;;;;14.25;5.05;;;16.60;99.90;;;;;;5056789;28;20120;-68
2022/07/09 04:41:55;;;;;;;22.23;5.20;;;16.60;99.90;;;;;;5052723;28;20052;-67
2022/07/09 04:44:20;;;;;;;10.40;4.78;;;16.60;99.90;;;;;;5055979;28;20033;-66
2022/07/09 04:46:46;;;;;;;13.45;5.40;;;16.60;99.90;;;;;;5063552;28;20558;-67
2022/07/09 04:49:12;;;;;;;13.05;5.15;;;16.70;99.90;;;;;;5054703;28;20040;-67
2022/07/09 04:51:37;;;;;;;10.35;4.63;;;16.70;99.90;;;;;;5058688;28;20060;-68
2022/07/09 04:54:03;;;;;;;14.90;5.53;;;16.70;99.90;;;;;;5070567;28;20044;-67
2022/07/09 04:56:29;;;;;;;10.68;4.82;;;16.70;99.90;;;;;;5065427;28;20048;-68
2022/07/09 04:59:00;;;;;;;12.20;5.60;;;16.70;99.90;;;;;;5061876;28;20159;-68
2022/07/09 05:01:29;;;;;;;9.88;4.68;;;16.80;99.90;;;;;;5056016;28;20071;-67
2022/07/09 05:03:55;;;;;;;14.27;4.70;;;16.90;99.90;;;;;;5067670;28;20777;-66
2022/07/09 05:06:21;;;;;;;12.38;4.75;;;16.90;99.90;;;;;;5066698;28;20127;-66
2022/07/09 05:08:50;;;;;;;10.43;5.25;;;16.90;99.90;;;;;;5060701;28;20202;-67
2022/07/09 05:11:16;;;;;;;10.75;5.10;;;16.80;99.90;;;;;;5059547;28;20033;-66
2022/07/09 05:13:42;;;;;;;10.48;4.63;;;16.90;99.90;;;;;;5066189;28;20414;-66
2022/07/09 05:16:08;;;;;;;15.80;6.05;;;16.90;99.90;;;;;;5080492;28;20075;-67
2022/07/09 05:18:35;;;;;;;9.05;4.65;;;17.00;99.90;;;;;;5065621;28;20063;-66
2022/07/09 05:21:00;;;;;;;13.77;5.07;;;17.00;99.90;;;;;;5063166;28;20033;-66
2022/07/09 05:23:26;;;;;;;11.40;4.78;;;17.00;99.90;;;;;;5061380;28;20597;-67
2022/07/09 05:25:53;;;;;;;9.38;5.25;;;17.00;99.90;;;;;;5064941;28;20059;-69
2022/07/09 05:28:19;;;;;;;16.55;5.63;;;17.00;99.90;;;;;;5057623;28;20048;-67
2022/07/09 05:30:44;;;;;;;12.35;5.53;;;17.00;99.90;;;;;;5056610;28;20045;-66
2022/07/09 05:33:10;;;;;;;10.95;5.43;;;17.10;99.90;;;;;;5063683;28;20063;-67
2022/07/09 05:35:36;;;;;;;15.55;5.35;;;17.10;99.90;;;;;;5068862;28;20060;-65
2022/07/09 05:38:02;;;;;;;13.00;5.32;;;17.10;99.90;;;;;;5057995;28;20043;-67
2022/07/09 05:40:28;;;;;;;11.60;5.63;;;17.20;99.90;;;;;;5065572;28;20698;-67
2022/07/09 05:42:54;;;;;;;12.73;5.47;;;17.20;99.90;;;;;;5068980;28;20041;-66
2022/07/09 05:45:19;;;;;;;11.30;5.13;;;17.20;99.90;;;;;;5061887;28;20037;-66
2022/07/09 05:47:45;;;;;;;11.68;5.35;;;17.20;99.90;;;;;;5063793;28;20476;-67
2022/07/09 05:50:11;;;;;;;10.68;4.90;;;17.20;99.90;;;;;;5056707;28;20028;-67
2022/07/09 05:52:37;;;;;;;16.27;5.38;;;17.30;99.90;;;;;;5052389;28;20045;-67
2022/07/09 05:55:03;;;;;;;10.43;4.20;;;17.30;99.90;;;;;;5063240;28;20123;-66
2022/07/09 05:57:32;;;;;;;12.20;4.97;;;17.30;99.90;;;;;;5069402;28;20040;-67
2022/07/09 06:00:00;;;;;;;14.65;5.30;;;17.30;99.90;;;;;;5059148;28;20129;-67
2022/07/09 06:02:26;;;;;;;9.18;4.13;;;17.30;99.90;;;;;;5058285;28;20044;-67
2022/07/09 06:04:51;;;;;;;9.15;4.38;;;17.30;99.90;;;;;;5062178;28;20061;-66
2022/07/09 06:07:17;;;;;;;11.52;4.57;;;17.40;99.90;;;;;;5063457;28;20045;-67
2022/07/09 06:09:43;;;;;;;10.68;4.35;;;17.50;99.90;;;;;;5067943;28;20040;-66
2022/07/09 06:12:09;;;;;;;11.68;4.57;;;17.50;99.90;;;;;;5059174;28;20052;-67
2022/07/09 06:14:37;;;;;;;9.00;4.07;;;17.50;99.90;;;;;;5062078;28;20127;-66
2022/07/09 06:17:06;;;;;;;7.03;3.88;;;17.50;99.90;;;;;;5068589;28;20562;-67
2022/07/09 06:19:36;;;;;;;7.55;4.18;;;17.50;99.90;;;;;;5070729;28;20505;-67
2022/07/09 06:22:02;;;;;;;11.43;4.30;;;17.60;99.90;;;;;;5067358;28;20040;-68
2022/07/09 06:24:29;;;;;;;11.65;3.63;;;17.60;99.90;;;;;;5068800;28;20200;-67
2022/07/09 06:26:55;;;;;;;11.05;4.28;;;17.60;99.90;;;;;;5065025;28;20094;-66
2022/07/09 06:29:21;;;;;;;9.13;3.80;;;17.80;99.90;;;;;;5070776;28;20044;-67
2022/07/09 06:31:47;;;;;;;12.23;4.50;;;17.70;99.90;;;;;;5069295;28;20039;-68
2022/07/09 06:34:13;;;;;;;7.63;4.00;;;17.70;99.90;;;;;;5070350;28;20045;-65
2022/07/09 06:36:41;;;;;;;13.73;4.18;;;17.80;99.90;;;;;;5062961;28;20433;-66
2022/07/09 06:41:51;;;;;;;8.52;3.80;;;17.70;99.90;;;;;;5063460;28;20051;-67
2022/07/09 06:44:17;;;;;;;9.57;3.55;;;17.90;99.90;;;;;;5061309;28;20044;-66
2022/07/09 06:46:42;;;;;;;9.85;3.60;;;17.90;99.90;;;;;;5065320;28;20040;-65
2022/07/09 06:49:08;;;;;;;7.03;3.67;;;17.80;99.90;;;;;;5065520;28;20028;-67
2022/07/09 06:51:33;;;;;;;8.05;2.97;;;17.90;99.90;;;;;;5068896;28;20056;-65
2022/07/09 06:53:59;;;;;;;9.52;3.95;;;17.90;99.90;;;;;;5070603;28;20053;-67
2022/07/09 06:56:25;;;;;;;8.18;3.30;;;17.80;99.90;;;;;;5066215;28;20550;-66
2022/07/09 06:58:51;;;;;;;16.15;3.80;;;17.80;99.90;;;;;;5068249;28;20044;-66
2022/07/09 07:01:16;;;;;;;9.00;4.22;;;17.90;99.90;;;;;;5060880;28;20048;-66
2022/07/09 07:03:42;;;;;;;6.63;3.10;;;17.90;99.90;;;;;;5058216;28;20041;-67
2022/07/09 07:06:08;;;;;;;7.63;2.63;;;18.00;99.90;;;;;;5062146;28;20052;-67
2022/07/09 07:08:33;;;;;;;8.82;3.30;;;18.00;99.90;;;;;;5065784;28;20052;-66
2022/07/09 07:10:59;;;;;;;6.90;3.10;;;18.10;99.90;;;;;;5062712;28;20040;-67
2022/07/09 07:13:28;;;;;;;11.32;2.60;;;18.10;99.90;;;;;;5073523;28;20047;-66
2022/07/09 07:15:53;;;;;;;8.80;2.85;;;18.20;99.90;;;;;;5052159;28;20053;-67
2022/07/09 07:18:19;;;;;;;9.98;2.72;;;18.20;99.90;;;;;;5052304;28;20102;-68
2022/07/09 07:20:45;;;;;;;5.53;2.30;;;18.30;99.90;;;;;;5066529;28;20046;-68
2022/07/09 07:23:11;;;;;;;11.75;2.70;;;18.40;99.90;;;;;;5068729;28;20125;-67
2022/07/09 07:25:37;;;;;;;13.10;2.85;;;18.40;99.90;;;;;;5065072;28;20119;-67
2022/07/09 07:28:04;;;;;;;9.98;2.90;;;18.40;99.90;;;;;;5072543;28;20059;-68
2022/07/09 07:30:32;;;;;;;4.17;1.93;;;18.50;99.90;;;;;;5071679;28;20398;-67
2022/07/09 07:32:59;;;;;;;13.52;2.50;;;18.50;99.90;;;;;;5069848;28;20442;-68
2022/07/09 07:35:25;;;;;;;16.13;2.60;;;18.60;99.90;;;;;;5067931;28;20392;-69
2022/07/09 07:37:50;;;;;;;10.15;2.20;;;18.70;99.90;;;;;;5065959;28;20047;-67
2022/07/09 07:40:17;;;;;;;5.03;2.17;;;18.80;99.90;;;;;;5070207;28;20037;-67
2022/07/09 07:42:43;;;;;;;8.48;2.80;;;18.90;99.90;;;;;;5071165;28;20076;-69
2022/07/09 07:45:12;;;;;;;11.32;2.42;;;18.90;99.90;;;;;;5071933;28;20109;-67
2022/07/09 07:47:38;;;;;;;6.90;2.35;;;19.00;99.90;;;;;;5066417;28;20475;-68
2022/07/09 07:50:07;;;;;;;14.13;2.58;;;19.00;99.90;;;;;;5067970;28;20049;-68
2022/07/09 07:52:33;;;;;;;6.82;2.25;;;19.00;99.90;;;;;;5060361;28;20037;-67
2022/07/09 07:54:59;;;;;;;6.35;2.22;;;19.00;99.90;;;;;;5054933;28;20045;-67
2022/07/09 07:57:24;;;;;;;11.20;2.35;;;19.10;99.90;;;;;;5052470;28;20047;-67
2022/07/09 07:59:53;;;;;;;10.75;2.50;;;19.10;99.90;;;;;;5070155;28;20051;-66
2022/07/09 08:02:19;;;;;;;10.20;1.85;;;19.20;99.90;;;;;;5065658;28;20037;-67
2022/07/09 08:04:47;;;;;;;5.78;2.25;;;19.20;99.90;;;;;;5069228;28;20102;-67
2022/07/09 08:07:13;;;;;;;8.75;1.90;;;19.30;99.90;;;;;;5056167;28;20053;-67
2022/07/09 08:09:38;;;;;;;10.18;2.30;;;19.40;99.90;;;;;;5065656;28;20389;-67
2022/07/09 08:12:07;;;;;;;7.53;2.30;;;19.30;99.90;;;;;;5069667;28;20036;-68
2022/07/09 08:14:33;;;;;;;12.40;2.63;;;19.40;99.90;;;;;;5059898;28;20127;-68
2022/07/09 08:16:59;;;;;;;7.95;2.33;;;19.30;99.90;;;;;;5067466;28;20047;-67
2022/07/09 08:19:25;;;;;;;11.13;2.15;;;19.30;99.90;;;;;;5068604;28;20036;-67
2022/07/09 08:21:50;;;;;;;25.77;3.20;;;19.20;99.90;;;;;;5058694;28;20583;-66
2022/07/09 08:24:16;;;;;;;11.52;2.85;;;19.10;99.90;;;;;;5070894;28;20556;-68
2022/07/09 08:26:41;;;;;;;6.57;2.10;;;19.10;99.90;;;;;;5063497;28;20040;-67
2022/07/09 08:29:07;;;;;;;8.85;2.20;;;19.10;99.90;;;;;;5059838;28;20040;-68
2022/07/09 08:31:33;;;;;;;12.70;2.63;;;19.00;99.90;;;;;;5065447;28;20040;-67
2022/07/09 08:33:58;;;;;;;9.77;2.10;;;19.00;99.90;;;;;;5056054;28;20041;-67
2022/07/09 08:36:24;;;;;;;12.13;2.60;;;19.00;99.90;;;;;;5069255;28;20051;-68
2022/07/09 08:38:50;;;;;;;6.95;2.20;;;19.10;99.90;;;;;;5069716;28;20410;-65
2022/07/09 08:41:19;;;;;;;9.77;2.17;;;19.20;99.90;;;;;;5065276;28;20175;-66
2022/07/09 08:43:52;;;;;;;7.28;1.80;;;19.40;99.90;;;;;;5067167;28;20098;-67
2022/07/09 08:46:18;;;;;;;7.03;2.22;;;19.60;99.90;;;;;;5062953;28;20491;-66
2022/07/09 08:48:45;;;;;;;10.02;2.17;;;19.70;99.90;;;;;;5061490;28;20069;-68
2022/07/09 08:51:13;;;;;;;13.05;2.42;;;19.80;99.90;;;;;;5066837;28;20044;-67
2022/07/09 08:53:44;;;;;;;13.30;2.60;;;20.10;99.90;;;;;;5069902;28;20101;-66
2022/07/09 08:56:12;;;;;;;6.93;2.42;;;20.00;99.90;;;;;;5054850;28;20510;-67
2022/07/09 08:58:39;;;;;;;9.23;2.90;;;19.90;99.90;;;;;;5051317;28;20056;-67
2022/07/09 09:01:11;;;;;;;10.73;3.33;;;19.70;99.90;;;;;;5061987;28;20512;-68
2022/07/09 09:03:37;;;;;;;10.13;2.85;;;19.60;99.90;;;;;;5063458;28;20395;-67
2022/07/09 09:06:05;;;;;;;10.15;2.78;;;19.60;99.90;;;;;;5060556;28;20055;-68
2022/07/09 09:08:42;;;;;;;7.90;1.98;;;19.50;99.90;;;;;;5058334;28;20041;-66
2022/07/09 09:11:16;;;;;;;10.57;2.28;;;19.60;99.90;;;;;;5065746;28;20500;-66
2022/07/09 09:13:43;;;;;;;9.07;2.80;;;19.70;99.90;;;;;;5066122;28;20098;-66
2022/07/09 09:16:10;;;;;;;9.40;2.88;;;19.70;99.90;;;;;;5062557;28;20041;-66
2022/07/09 09:18:56;;;;;;;11.87;2.90;;;19.80;99.90;;;;;;5063851;28;20055;-67
2022/07/09 09:21:24;;;;;;;12.80;2.60;;;19.70;99.90;;;;;;5063541;28;20464;-66
2022/07/09 09:23:52;;;;;;;7.47;1.80;;;19.70;99.90;;;;;;5060010;28;20040;-66
2022/07/09 09:26:19;;;;;;;8.10;1.95;;;19.60;99.90;;;;;;5058349;28;20529;-65
2022/07/09 09:29:04;;;;;;;6.78;1.98;;;19.60;99.90;;;;;;5055388;28;20036;-66
2022/07/09 09:31:39;;;;;;;9.40;2.22;;;19.60;99.90;;;;;;5067455;28;20344;-67
2022/07/09 09:34:15;;;;;;;6.47;2.30;;;19.70;99.90;;;;;;5062084;28;20056;-66
2022/07/09 09:36:43;;;;;;;7.80;1.95;;;19.70;99.90;;;;;;5061530;28;20059;-66
2022/07/09 09:39:25;;;;;;;6.45;2.55;;;19.70;99.90;;;;;;5065667;28;20406;-66
2022/07/09 09:41:59;;;;;;;7.93;2.13;;;19.80;99.90;;;;;;5044011;28;20045;-67
2022/07/09 09:44:32;;;;;;;7.28;2.03;;;20.00;99.90;;;;;;5067719;28;20044;-66
2022/07/09 09:46:58;;;;;;;5.97;2.10;;;20.10;99.90;;;;;;5063382;28;20101;-68
2022/07/09 09:49:25;;;;;;;9.15;2.05;;;20.20;99.90;;;;;;5047658;28;20040;-67
2022/07/09 09:51:54;;;;;;;8.13;2.00;;;20.30;99.90;;;;;;5071377;28;20068;-66
2022/07/09 09:54:21;;;;;;;10.30;2.17;;;20.40;99.90;;;;;;5038725;28;20037;-67
2022/07/09 09:56:48;;;;;;;9.73;2.00;;;20.40;99.90;;;;;;5071535;28;20041;-67
2022/07/09 09:59:15;;;;;;;12.35;2.95;;;20.50;99.90;;;;;;5071764;28;20299;-69
2022/07/09 10:01:42;;;;;;;8.50;2.33;;;20.50;99.90;;;;;;5061841;28;20037;-67
2022/07/09 10:04:09;;;;;;;6.13;2.17;;;20.50;99.90;;;;;;5057339;28;20379;-66
2022/07/09 10:06:35;;;;;;;;;;;20.50;99.90;;;;;;5067167;28;20517;-67
2022/07/09 10:09:03;;;;;;;11.23;2.50;;;20.40;99.90;;;;;;5070048;28;19920;-66
2022/07/09 10:11:40;;;;;;;12.55;3.03;;;20.20;99.90;;;;;;5059674;28;20044;-67
2022/07/09 10:14:07;;;;;;;6.47;2.20;;;20.20;99.90;;;;;;5074577;28;20044;-67
2022/07/09 10:16:42;;;;;;;9.73;2.00;;;20.50;99.90;;;;;;5064392;28;20059;-67
2022/07/09 10:19:07;;;;;;;8.88;2.03;;;20.30;99.90;;;;;;5063371;28;20490;-68
2022/07/09 10:21:35;;;;;;;11.98;2.10;;;19.90;99.90;;;;;;5069215;28;20036;-68
2022/07/09 10:24:01;;;;;;;11.20;2.25;;;19.40;99.90;;;;;;5073279;28;20041;-66
2022/07/09 10:26:42;;;;;;;8.45;2.35;;;19.10;99.90;;;;;;5066049;28;20045;-66
2022/07/09 10:29:25;;;;;;;5.85;2.15;;;18.90;99.90;;;;;;5060632;28;20064;-65
2022/07/09 10:31:55;;;;;;;10.45;2.47;;;18.80;99.90;;;;;;5069808;28;20043;-66
2022/07/09 10:34:51;;;;;;;10.13;2.80;;;18.70;99.90;;;;;;5062083;28;20101;-66
2022/07/09 10:37:18;;;;;;;17.85;2.88;;;18.60;99.90;;;;;;5064611;28;20044;-67
2022/07/09 10:39:54;;;;;;;12.10;2.22;;;18.50;99.90;;;;;;5059265;28;20041;-68
2022/07/09 10:42:23;;;;;;;5.60;2.40;;;18.60;99.90;;;;;;5071429;28;20044;-67
2022/07/09 10:44:53;;;;;;;13.85;2.30;;;18.70;99.90;;;;;;5059965;28;20078;-66
2022/07/09 10:47:19;;;;;;;16.17;2.72;;;18.60;99.90;;;;;;5063997;28;20052;-67
2022/07/09 10:49:48;;;;;;;8.93;2.20;;;18.60;99.90;;;;;;5027501;28;20399;-65
2022/07/09 10:52:14;;;;;;;8.35;2.40;;;18.70;99.90;;;;;;5066668;28;20052;-68
2022/07/09 10:54:49;;;;;;;7.13;2.15;;;18.80;99.90;;;;;;5061012;28;20045;-66
2022/07/09 10:57:14;;;;;;;13.95;2.72;;;19.00;99.90;;;;;;5062040;28;20566;-67
2022/07/09 10:59:47;;;;;;;14.63;2.03;;;19.00;99.90;;;;;;5068671;28;20132;-66
2022/07/09 11:02:20;;;;;;;13.15;2.20;;;19.10;99.90;;;;;;5069154;28;20106;-66
2022/07/09 11:04:51;;;;;;;7.93;1.85;;;19.00;99.90;;;;;;5058723;28;20139;-67
2022/07/09 11:07:24;;;;;;;8.77;1.60;;;19.10;99.90;;;;;;5065818;28;20139;-67
2022/07/09 11:09:51;;;;;;;7.65;1.83;;;19.10;99.90;;;;;;5061959;28;20036;-66
2022/07/09 11:12:18;;;;;;;9.27;2.00;;;19.20;99.90;;;;;;5065425;28;20048;-66
2022/07/09 11:14:48;;;;;;;6.13;1.70;;;19.30;99.90;;;;;;5067203;28;20048;-67
2022/07/09 11:17:19;;;;;;;6.18;1.50;;;19.40;99.90;;;;;;5063704;28;20036;-66
2022/07/09 11:19:47;;;;;;;11.18;1.77;;;19.70;99.90;;;;;;5061023;28;20041;-66
2022/07/09 11:22:15;;;;;;;5.80;1.40;;;19.60;99.90;;;;;;5061477;28;20060;-66
2022/07/09 11:24:41;;;;;;;7.38;2.20;;;19.40;99.90;;;;;;5050923;28;20181;-67
2022/07/09 11:27:08;;;;;;;6.38;1.80;;;19.40;99.90;;;;;;5070223;28;20547;-68
2022/07/09 11:29:36;;;;;;;5.63;1.40;;;19.30;99.90;;;;;;5051008;28;20395;-67
2022/07/09 11:32:04;;;;;;;6.50;1.75;;;19.20;99.90;;;;;;5064978;28;20037;-66
2022/07/09 11:34:30;;;;;;;6.20;2.13;;;19.30;99.90;;;;;;5060527;28;20049;-67
2022/07/09 11:36:57;;;;;;;9.27;2.05;;;19.40;99.90;;;;;;5054881;28;20075;-67
2022/07/09 11:39:24;;;;;;;11.88;1.88;;;19.50;99.90;;;;;;5068645;28;20083;-66
2022/07/09 11:41:50;;;;;;;8.50;2.15;;;19.60;99.90;;;;;;5067537;28;20444;-66
2022/07/09 11:44:24;;;;;;;7.47;1.70;;;19.70;99.90;;;;;;5070344;28;20174;-67
2022/07/09 11:47:09;;;;;;;6.22;1.40;;;19.90;99.90;;;;;;5068354;28;20409;-65
2022/07/09 11:49:43;;;;;;;6.10;1.60;;;20.10;99.90;;;;;;5063629;28;20513;-66
2022/07/09 11:52:25;;;;;;;11.55;1.75;;;20.20;99.90;;;;;;5057077;28;20109;-67
2022/07/09 11:55:19;;;;;;;6.05;1.50;;;20.20;99.90;;;;;;5068613;28;20066;-67
2022/07/09 11:58:02;;;;;;;4.20;1.45;;;20.20;99.40;;;;;;5045409;28;20048;-68
2022/07/09 12:00:40;;;;;;;6.72;1.48;;;20.10;99.50;;;;;;5051159;28;20051;-66
2022/07/09 12:03:06;;;;;;;8.90;1.90;;;20.10;99.70;;;;;;5061313;28;20136;-68
2022/07/09 12:05:36;;;;;;;5.97;1.63;;;20.10;99.20;;;;;;5048707;28;20082;-67
2022/07/09 12:08:05;;;;;;;5.63;1.60;;;20.10;99.50;;;;;;5058017;28;20052;-67
2022/07/09 12:10:33;;;;;;;8.63;2.45;;;20.20;99.90;;;;;;5068049;28;20048;-66
2022/07/09 12:13:00;;;;;;;6.15;1.50;;;20.40;99.90;;;;;;5061576;28;20067;-66
2022/07/09 12:15:26;;;;;;;6.17;1.40;;;20.60;98.70;;;;;;5066748;28;20048;-67
2022/07/09 12:17:54;;;;;;;5.72;1.40;;;20.60;99.30;;;;;;5064996;28;20109;-66
2022/07/09 12:20:21;;;;;;;8.27;1.60;;;20.60;98.90;;;;;;5068048;28;20052;-67
2022/07/09 12:22:47;;;;;;;9.27;2.43;;;20.40;99.10;;;;;;5062786;28;20041;-66
2022/07/09 12:25:13;;;;;;;11.13;1.80;;;20.30;98.70;;;;;;5060755;28;20290;-66
2022/07/09 12:27:39;;;;;;;8.55;1.70;;;20.20;99.10;;;;;;5060069;28;20051;-67
2022/07/09 12:30:05;;;;;;;8.82;1.88;;;20.30;99.20;;;;;;5060135;28;20483;-66
2022/07/09 12:32:31;;;;;;;9.25;1.65;;;20.40;99.10;;;;;;5061418;28;20044;-68
2022/07/09 12:34:57;;;;;;;8.48;1.73;;;20.40;98.70;;;;;;5058784;28;20411;-67
2022/07/09 12:37:22;;;;;;;5.20;1.70;;;20.30;99.00;;;;;;5049955;28;20503;-66
2022/07/09 12:39:49;;;;;;;7.28;1.75;;;20.10;99.50;;;;;;5050633;28;20103;-67
2022/07/09 12:42:15;;;;;;;10.15;1.98;;;20.00;99.70;;;;;;5052576;28;20381;-66
2022/07/09 12:44:40;;;;;;;10.85;2.10;;;19.90;99.90;;;;;;5049947;28;20058;-66